CZFM/ZFM METAR and TAF weather

Enter ICAO airport designator
Station Type Date Time Source
CZFM METAR 2018/07/20 23:00 UTC NOAA

CZFM 202300Z 19006KT 150V220 35SM BKN060 17/10 A3016 RMK SC6 17.8/6.0/0.0 LAST OBS/NEXT 211300Z SLP217 DENSITY ALT 200FT


Station Type Date Time Source
CZFM Decoded METAR 2018/07/20 23:00 UTC NOAA

Fort Mcpherson Airport, Canada (CZFM) 67-24N 134-51W
Jul 20, 2018 - 07:00 PM EDT / 2018.07.20 2300 UTC
Wind: from the S (190 degrees) at 7 MPH (6 KT) (direction variable):0
Visibility: 35 mile(s):0
Sky conditions: mostly cloudy
Temperature: 62 F (17 C)
Dew Point: 50 F (10 C)
Relative Humidity: 63%
Pressure (altimeter): 30.16 in. Hg (1021 hPa)
ob: CZFM 202300Z 19006KT 150V220 35SM BKN060 17/10 A3016 RMK SC6 17.8/6.0/0.0 LAST OBS/NEXT 211300Z SLP217 DENSITY ALT 200FT
cycle: 23

Station Type Date Time Source
CZFM TAF 2018/07/20 19:00 UTC NOAA

TAF CZFM 201839Z 2019/2023 17010G20KT P6SM SCT040
RMK NXT FCST WILL BE ISSUED AT 211445Z


Example: see airport list